Terminal Aerodrome Forecast
Issued by NWS Jackson, MS

Home | Current Version | Previous Version | Text Only | Print | Product List | Glossary On
Versions: 1 2 3 4 5 6 7 8 9 10 11 12 13 14 15 16 17 18 19
000
FTUS44 KMEG 021730
TAFTUP
TAF
KTUP 021730Z 0218/0318 25012G20KT P6SM VCTS SCT040CB BKN250
     FM030100 25007KT P6SM VCTS SCT040CB BKN250
      TEMPO 0308/0312 3SM TSRA BKN025CB
     FM031500 24010KT P6SM VCTS BKN040CB OVC250=

USA.gov is the U.S. government's official web portal to all federal, state and local government web resources and services.